createdAt,value
2023-09-11T00:01:48.428Z,66.87
2023-09-11T00:04:16.408Z,67.07
2023-09-11T00:06:43.855Z,67.22
2023-09-11T00:09:11.129Z,67.11
2023-09-11T00:11:38.527Z,67.13
2023-09-11T00:14:05.836Z,66.96
2023-09-11T00:16:33.352Z,66.98
2023-09-11T00:19:00.647Z,67.02
2023-09-11T00:21:27.944Z,66.76
2023-09-11T00:23:55.265Z,66.73
2023-09-11T00:26:22.714Z,67.02
2023-09-11T00:28:53.117Z,67.10
2023-09-11T00:31:20.453Z,67.03
2023-09-11T00:33:48.139Z,67.03
2023-09-11T00:36:15.385Z,66.95
2023-09-11T00:38:43.112Z,67.04
2023-09-11T00:41:10.797Z,66.96
2023-09-11T00:43:38.069Z,66.97
2023-09-11T00:46:06.860Z,67.08
2023-09-11T00:48:34.304Z,67.06
2023-09-11T00:51:01.709Z,66.97
2023-09-11T00:53:29.203Z,67.09
2023-09-11T00:55:56.561Z,67.14
2023-09-11T00:58:26.126Z,67.10
2023-09-11T01:00:53.878Z,66.90
2023-09-11T01:03:21.482Z,67.15
2023-09-11T01:05:51.323Z,67.52
2023-09-11T01:08:19.109Z,67.29
2023-09-11T01:10:47.147Z,67.32
2023-09-11T01:13:14.450Z,67.25
2023-09-11T01:15:51.815Z,67.68
2023-09-11T01:18:30.376Z,67.38
2023-09-11T01:20:57.711Z,67.44
2023-09-11T01:23:24.951Z,67.30
2023-09-11T01:25:52.297Z,67.35
2023-09-11T01:28:23.061Z,67.12
2023-09-11T01:30:50.902Z,67.26
2023-09-11T01:33:18.267Z,67.43
2023-09-11T01:35:45.629Z,67.60
2023-09-11T01:38:13.306Z,67.60
2023-09-11T01:40:42.980Z,67.66
2023-09-11T01:43:12.765Z,67.33
2023-09-11T01:45:41.004Z,67.34
2023-09-11T01:48:09.074Z,67.35
2023-09-11T01:50:37.659Z,67.27
2023-09-11T01:53:07.942Z,67.47
2023-09-11T01:55:35.712Z,67.45
2023-09-11T01:58:03.109Z,67.48
2023-09-11T02:00:30.933Z,67.60
2023-09-11T02:02:59.441Z,67.71
2023-09-11T02:05:26.908Z,67.72
2023-09-11T02:07:54.192Z,67.51
2023-09-11T02:10:21.427Z,67.54
2023-09-11T02:12:48.800Z,67.52
2023-09-11T02:15:16.413Z,67.51
2023-09-11T02:17:43.686Z,67.55
2023-09-11T02:20:11.158Z,67.72
2023-09-11T02:22:38.444Z,67.35
2023-09-11T02:25:05.986Z,67.53
2023-09-11T02:27:33.336Z,67.43
2023-09-11T02:30:00.812Z,67.70
2023-09-11T02:32:28.234Z,67.80
2023-09-11T02:34:55.841Z,67.68
2023-09-11T02:37:23.238Z,67.77
2023-09-11T02:39:50.495Z,67.92
2023-09-11T02:42:17.905Z,68.09
2023-09-11T02:44:45.242Z,68.13
2023-09-11T02:47:12.546Z,68.01
2023-09-11T02:49:39.853Z,67.86
2023-09-11T02:52:07.238Z,68.09
2023-09-11T02:54:34.865Z,68.09
2023-09-11T02:57:02.725Z,67.92
2023-09-11T02:59:31.035Z,67.92
2023-09-11T03:01:58.363Z,67.81
2023-09-11T03:04:25.759Z,67.94
2023-09-11T03:06:53.018Z,67.99
2023-09-11T03:09:20.978Z,67.78
2023-09-11T03:11:48.466Z,67.90
2023-09-11T03:14:18.404Z,67.78
2023-09-11T03:16:45.890Z,68.00
2023-09-11T03:19:13.400Z,68.00
2023-09-11T03:21:40.902Z,68.10
2023-09-11T03:24:08.684Z,67.99
2023-09-11T03:26:38.151Z,67.88
2023-09-11T03:29:05.689Z,68.11
2023-09-11T03:31:33.500Z,68.05
2023-09-11T03:34:01.054Z,68.15
2023-09-11T03:36:28.875Z,68.15
2023-09-11T03:38:56.507Z,68.03
2023-09-11T03:41:24.794Z,68.11
2023-09-11T03:43:52.681Z,68.04
2023-09-11T03:46:20.292Z,67.92
2023-09-11T03:48:48.993Z,67.62
2023-09-11T03:51:18.737Z,67.91
2023-09-11T03:53:47.070Z,67.74
2023-09-11T03:56:20.850Z,67.94
2023-09-11T03:58:49.194Z,67.44
2023-09-11T04:01:18.305Z,67.14
2023-09-11T04:03:46.463Z,67.06
2023-09-11T04:06:14.078Z,67.29
2023-09-11T04:08:41.547Z,67.26
2023-09-11T04:11:09.060Z,67.08
2023-09-11T04:13:36.560Z,67.05
2023-09-11T04:16:03.956Z,67.29
2023-09-11T04:18:31.542Z,67.18
2023-09-11T04:21:02.680Z,67.13
2023-09-11T04:23:30.187Z,67.42
2023-09-11T04:25:57.622Z,67.15
2023-09-11T04:28:25.032Z,65.97
2023-09-11T04:30:52.411Z,64.41
2023-09-11T04:33:20.846Z,64.75
2023-09-11T04:35:48.538Z,64.14
2023-09-11T04:38:15.937Z,63.06
2023-09-11T04:40:43.238Z,63.15
2023-09-11T04:43:10.549Z,63.46
2023-09-11T04:45:39.044Z,63.43
2023-09-11T04:48:07.231Z,63.60
2023-09-11T04:50:35.216Z,62.78
2023-09-11T04:53:04.273Z,62.91
2023-09-11T04:55:33.150Z,63.33
2023-09-11T04:58:00.621Z,64.01
2023-09-11T05:00:28.230Z,64.23
2023-09-11T05:02:55.889Z,64.57
2023-09-11T05:05:23.681Z,64.31
2023-09-11T05:07:51.922Z,64.72
2023-09-11T05:10:19.890Z,64.61
2023-09-11T05:12:49.091Z,65.07
2023-09-11T05:15:16.946Z,65.20
2023-09-11T05:17:45.074Z,64.75
2023-09-11T05:20:12.493Z,63.43
2023-09-11T05:22:41.639Z,63.05
2023-09-11T05:25:09.306Z,62.66
2023-09-11T05:27:36.655Z,62.91
2023-09-11T05:30:04.234Z,62.82
2023-09-11T05:32:34.086Z,63.02
2023-09-11T05:35:01.573Z,62.49
2023-09-11T05:37:29.909Z,62.58
2023-09-11T05:39:57.148Z,62.21
2023-09-11T05:42:24.457Z,62.42
2023-09-11T05:44:51.730Z,62.01
2023-09-11T05:47:19.310Z,60.45
2023-09-11T05:49:46.733Z,59.09
2023-09-11T05:52:14.185Z,58.68
2023-09-11T05:54:42.462Z,58.51
2023-09-11T05:57:09.842Z,58.39
2023-09-11T05:59:37.119Z,58.65
2023-09-11T06:02:04.486Z,57.69
2023-09-11T06:04:32.224Z,57.38
2023-09-11T06:06:59.544Z,57.31
2023-09-11T06:09:28.030Z,57.52
2023-09-11T06:11:55.460Z,57.01
2023-09-11T06:14:22.719Z,56.54
2023-09-11T06:16:50.134Z,56.21
2023-09-11T06:19:17.585Z,55.45
2023-09-11T06:21:47.985Z,54.50
2023-09-11T06:24:15.664Z,53.28
2023-09-11T06:26:43.984Z,52.84
2023-09-11T06:29:11.478Z,52.11
2023-09-11T06:31:38.867Z,51.32
2023-09-11T06:34:06.349Z,50.80
2023-09-11T06:36:33.573Z,50.30
2023-09-11T06:39:00.910Z,50.27
2023-09-11T06:41:56.798Z,49.32
2023-09-11T06:44:34.873Z,49.26
2023-09-11T06:47:02.107Z,47.93
2023-09-11T06:49:38.622Z,48.62
2023-09-11T06:52:06.961Z,48.33
2023-09-11T06:54:54.357Z,48.23
2023-09-11T06:57:21.628Z,47.80
2023-09-11T06:59:58.230Z,48.29
2023-09-11T07:02:44.853Z,48.02
2023-09-11T07:05:12.337Z,47.51
2023-09-11T07:08:03.972Z,47.38
2023-09-11T07:10:41.755Z,47.12
2023-09-11T07:13:09.779Z,46.86
2023-09-11T07:15:59.939Z,46.04
2023-09-11T07:18:28.093Z,46.02
2023-09-11T07:20:55.596Z,45.34
2023-09-11T07:23:24.885Z,44.54
2023-09-11T07:25:52.781Z,44.85
2023-09-11T07:28:20.044Z,44.90
2023-09-11T07:30:47.325Z,44.78
2023-09-11T07:33:14.664Z,44.24
2023-09-11T07:35:42.118Z,43.96
2023-09-11T07:38:09.392Z,43.73
2023-09-11T07:41:29.003Z,41.11
2023-09-11T07:43:56.403Z,42.59
2023-09-11T07:46:25.907Z,42.58
2023-09-11T07:48:53.416Z,42.36
2023-09-11T07:51:20.938Z,41.30
2023-09-11T07:53:48.176Z,41.16
2023-09-11T07:56:15.566Z,41.26
2023-09-11T07:58:43.138Z,39.50
2023-09-11T08:01:10.873Z,39.83
2023-09-11T08:03:38.467Z,40.80
2023-09-11T08:06:06.480Z,40.80
2023-09-11T08:08:34.468Z,38.91
2023-09-11T08:11:12.334Z,35.24
2023-09-11T08:13:39.647Z,38.97
2023-09-11T08:16:06.874Z,38.58
2023-09-11T08:18:34.219Z,36.88
2023-09-11T08:21:01.759Z,37.57
2023-09-11T08:23:29.184Z,37.78
2023-09-11T08:26:00.640Z,38.60
2023-09-11T08:28:28.035Z,38.12
2023-09-11T08:30:55.362Z,37.13
2023-09-11T08:33:23.407Z,36.36
2023-09-11T08:35:50.811Z,36.54
2023-09-11T08:38:18.522Z,35.74
2023-09-11T08:40:46.633Z,35.62
2023-09-11T08:43:14.163Z,35.55
2023-09-11T08:45:41.748Z,35.98
2023-09-11T08:48:11.470Z,35.68
2023-09-11T08:50:51.898Z,35.07
2023-09-11T08:53:19.998Z,34.59
2023-09-11T08:55:48.473Z,33.49
2023-09-11T08:58:17.392Z,35.14
2023-09-11T09:00:45.847Z,34.59
2023-09-11T09:03:13.660Z,34.88
2023-09-11T09:05:41.948Z,36.93
2023-09-11T09:08:13.749Z,36.45
2023-09-11T09:10:41.385Z,36.21
2023-09-11T09:13:10.404Z,35.87
2023-09-11T09:15:41.791Z,35.00
2023-09-11T09:18:09.766Z,34.48
2023-09-11T09:20:38.212Z,34.89
2023-09-11T09:23:05.841Z,34.45
2023-09-11T09:25:33.062Z,33.86
2023-09-11T09:28:00.714Z,34.23
2023-09-11T09:30:29.233Z,34.45
2023-09-11T09:32:57.611Z,34.20
2023-09-11T09:35:32.397Z,29.90
2023-09-11T09:38:00.697Z,32.40
2023-09-11T09:40:30.011Z,31.75
2023-09-11T09:42:57.894Z,30.49
2023-09-11T09:45:29.714Z,28.84
2023-09-11T09:48:16.331Z,31.02
2023-09-11T09:50:55.187Z,33.26
2023-09-11T09:53:23.806Z,32.93
2023-09-11T09:55:51.756Z,32.61
2023-09-11T09:58:20.444Z,31.12
2023-09-11T10:00:48.492Z,32.17
2023-09-11T10:03:16.257Z,32.04
2023-09-11T10:05:43.792Z,30.11
2023-09-11T10:08:15.202Z,30.45
2023-09-11T10:10:42.519Z,30.60
2023-09-11T10:13:16.798Z,31.94
2023-09-11T10:15:45.140Z,31.26
2023-09-11T10:18:13.315Z,30.01
2023-09-11T10:20:43.266Z,26.97
2023-09-11T10:23:10.653Z,27.66
2023-09-11T10:25:44.464Z,27.89
2023-09-11T10:28:14.976Z,27.46
2023-09-11T10:30:58.051Z,26.05
2023-09-11T10:33:33.310Z,25.92
2023-09-11T10:36:04.949Z,24.56
2023-09-11T10:38:33.830Z,25.29
2023-09-11T10:41:02.429Z,24.47
2023-09-11T10:43:29.775Z,23.01
2023-09-11T10:45:57.069Z,23.62
2023-09-11T10:48:28.342Z,23.17
2023-09-11T10:50:57.817Z,22.26
2023-09-11T10:53:31.940Z,22.77
2023-09-11T10:56:01.822Z,24.03
2023-09-11T10:58:30.206Z,23.63
2023-09-11T11:00:58.358Z,24.53
2023-09-11T11:03:26.223Z,23.75
2023-09-11T11:05:54.257Z,26.63
2023-09-11T11:08:22.043Z,27.70
2023-09-11T11:10:53.141Z,28.20
2023-09-11T11:13:20.565Z,28.93
2023-09-11T11:15:49.511Z,30.79
2023-09-11T11:18:26.063Z,30.43
2023-09-11T11:21:09.101Z,31.58
2023-09-11T11:23:52.160Z,32.08
2023-09-11T11:26:19.503Z,32.70
2023-09-11T11:28:47.137Z,32.85
2023-09-11T11:31:15.458Z,33.43
2023-09-11T11:33:45.810Z,33.60
2023-09-11T11:36:13.982Z,33.49
2023-09-11T11:38:43.331Z,33.26
2023-09-11T11:41:11.604Z,33.67
2023-09-11T11:43:39.098Z,33.73
2023-09-11T11:46:09.390Z,33.33
2023-09-11T11:48:38.896Z,33.04
2023-09-11T11:51:06.873Z,32.06
2023-09-11T11:53:34.228Z,30.42
2023-09-11T11:56:04.451Z,30.14
2023-09-11T11:58:36.216Z,28.79
2023-09-11T12:01:05.493Z,28.46
2023-09-11T12:03:33.998Z,28.88
2023-09-11T12:06:02.656Z,28.11
2023-09-11T12:08:30.059Z,26.50
2023-09-11T12:10:57.519Z,24.94
2023-09-11T12:13:38.923Z,23.65
2023-09-11T12:16:13.045Z,23.54
2023-09-11T12:18:42.112Z,23.02
2023-09-11T12:21:09.809Z,22.62
2023-09-11T12:23:37.621Z,22.22
2023-09-11T12:26:05.329Z,22.18
2023-09-11T12:28:34.023Z,20.23
2023-09-11T12:31:01.775Z,20.08
2023-09-11T12:33:33.047Z,21.06
2023-09-11T12:36:01.247Z,21.55
2023-09-11T12:38:28.879Z,20.44
2023-09-11T12:40:58.431Z,19.89
2023-09-11T12:43:27.348Z,21.78
2023-09-11T12:45:55.106Z,21.79
2023-09-11T12:48:36.550Z,20.45
2023-09-11T12:51:04.860Z,20.61
2023-09-11T12:53:41.137Z,22.29
2023-09-11T12:56:09.984Z,21.39
2023-09-11T12:58:51.415Z,20.34
2023-09-11T13:01:18.828Z,21.41
2023-09-11T13:03:49.355Z,21.66
2023-09-11T13:06:16.753Z,22.74
2023-09-11T13:08:59.685Z,23.50
2023-09-11T13:11:27.309Z,25.35
2023-09-11T13:14:15.314Z,27.29
2023-09-11T13:17:05.126Z,28.54
2023-09-11T13:19:32.740Z,29.61
2023-09-11T13:22:17.960Z,30.38
2023-09-11T13:25:11.667Z,31.24
2023-09-11T13:27:39.306Z,31.95
2023-09-11T13:30:14.779Z,32.70
2023-09-11T13:32:44.141Z,33.83
2023-09-11T13:35:13.004Z,34.47
2023-09-11T13:37:40.357Z,33.85
2023-09-11T13:40:07.937Z,33.89
2023-09-11T13:42:35.223Z,35.60
2023-09-11T13:45:02.620Z,34.47
2023-09-11T13:47:30.705Z,34.85
2023-09-11T13:49:57.993Z,34.39
2023-09-11T13:52:25.295Z,34.63
2023-09-11T13:54:52.551Z,37.05
2023-09-11T13:57:19.873Z,36.15
2023-09-11T13:59:47.454Z,36.07
2023-09-11T14:02:14.876Z,35.89
2023-09-11T14:04:42.510Z,37.01
2023-09-11T14:07:10.104Z,35.70
2023-09-11T14:09:37.401Z,36.05
2023-09-11T14:12:04.778Z,36.98
2023-09-11T14:14:33.255Z,36.68
2023-09-11T14:17:00.514Z,37.25
2023-09-11T14:19:27.908Z,37.49
2023-09-11T14:21:55.231Z,38.23
2023-09-11T14:24:23.608Z,38.19
2023-09-11T14:26:51.060Z,38.86
2023-09-11T14:29:18.358Z,39.19
2023-09-11T14:31:45.590Z,39.51
2023-09-11T14:34:13.041Z,39.91
2023-09-11T14:36:40.748Z,39.81
2023-09-11T14:39:08.320Z,41.47
2023-09-11T14:41:36.491Z,42.90
2023-09-11T14:44:03.880Z,42.56
2023-09-11T14:46:31.718Z,42.09
2023-09-11T14:48:59.600Z,42.37
2023-09-11T14:51:26.971Z,44.28
2023-09-11T14:53:54.522Z,45.96
2023-09-11T14:56:23.864Z,45.80
2023-09-11T14:58:51.253Z,47.08
2023-09-11T15:01:20.036Z,44.64
2023-09-11T15:03:47.636Z,49.29
2023-09-11T15:06:15.134Z,48.46
2023-09-11T15:08:42.851Z,48.07
2023-09-11T15:11:10.444Z,45.46
2023-09-11T15:13:37.704Z,44.09
2023-09-11T15:16:05.187Z,43.91
2023-09-11T15:18:32.796Z,44.20
2023-09-11T15:21:00.351Z,44.13
2023-09-11T15:23:27.610Z,45.61
2023-09-11T15:25:55.075Z,46.63
2023-09-11T15:28:22.355Z,47.23
2023-09-11T15:30:54.102Z,47.72
2023-09-11T15:33:22.049Z,48.25
2023-09-11T15:36:02.980Z,48.72
2023-09-11T15:38:31.106Z,48.13
2023-09-11T15:41:04.066Z,48.77
2023-09-11T15:43:35.954Z,46.58
2023-09-11T15:46:04.081Z,47.17
2023-09-11T15:48:32.626Z,48.16
2023-09-11T15:51:00.588Z,48.50
2023-09-11T15:53:28.548Z,49.43
2023-09-11T15:55:56.590Z,49.62
2023-09-11T15:58:28.241Z,49.09
2023-09-11T16:00:55.920Z,47.97
2023-09-11T16:03:26.080Z,47.52
2023-09-11T16:05:54.024Z,47.51
2023-09-11T16:08:21.455Z,50.87
2023-09-11T16:10:48.918Z,51.09
2023-09-11T16:13:16.405Z,51.63
2023-09-11T16:15:43.753Z,54.44
2023-09-11T16:18:12.316Z,52.73
2023-09-11T16:20:43.200Z,53.99
2023-09-11T16:23:11.671Z,53.57
2023-09-11T16:25:40.732Z,53.77
2023-09-11T16:28:08.075Z,54.14
2023-09-11T16:30:35.468Z,56.00
2023-09-11T16:33:04.335Z,55.98
2023-09-11T16:35:32.558Z,56.96
2023-09-11T16:38:01.205Z,56.33
2023-09-11T16:40:28.611Z,57.09
2023-09-11T16:42:55.949Z,58.02
2023-09-11T16:45:23.459Z,56.76
2023-09-11T16:47:50.946Z,56.62
2023-09-11T16:50:19.630Z,58.33
2023-09-11T16:52:47.637Z,58.64
2023-09-11T16:55:15.058Z,59.22
2023-09-11T16:57:42.819Z,59.55
2023-09-11T17:00:10.562Z,59.36
2023-09-11T17:02:39.076Z,57.24
2023-09-11T17:05:10.452Z,57.80
2023-09-11T17:07:38.240Z,58.02
2023-09-11T17:10:06.011Z,58.20
2023-09-11T17:12:33.862Z,58.55
2023-09-11T17:15:01.251Z,58.97
2023-09-11T17:17:30.078Z,60.22
2023-09-11T17:19:57.459Z,60.58
2023-09-11T17:22:24.785Z,59.59
2023-09-11T17:24:52.280Z,58.63
2023-09-11T17:27:19.832Z,56.79
2023-09-11T17:29:47.207Z,55.97
2023-09-11T17:32:14.546Z,56.37
2023-09-11T17:34:42.757Z,54.50
2023-09-11T17:37:10.178Z,54.87
2023-09-11T17:39:37.420Z,54.60
2023-09-11T17:42:05.089Z,54.15
2023-09-11T17:44:34.057Z,55.77
2023-09-11T17:47:01.430Z,57.08
2023-09-11T17:49:28.717Z,57.82
2023-09-11T17:51:56.295Z,58.66
2023-09-11T17:54:23.865Z,58.45
2023-09-11T17:56:51.391Z,58.31
2023-09-11T17:59:18.661Z,60.60
2023-09-11T18:01:45.955Z,60.36
2023-09-11T18:04:13.495Z,60.90
2023-09-11T18:06:41.636Z,61.03
2023-09-11T18:09:09.144Z,62.01
2023-09-11T18:11:36.605Z,62.63
2023-09-11T18:14:04.510Z,63.18
2023-09-11T18:16:31.894Z,61.98
2023-09-11T18:18:59.745Z,61.85
2023-09-11T18:21:27.278Z,61.38
2023-09-11T18:23:55.861Z,61.02
2023-09-11T18:26:23.808Z,60.24
2023-09-11T18:28:51.260Z,59.31
2023-09-11T18:31:18.637Z,59.64
2023-09-11T18:33:48.259Z,60.65
2023-09-11T18:36:16.691Z,61.65
2023-09-11T18:38:44.031Z,61.60
2023-09-11T18:41:12.598Z,62.03
2023-09-11T18:43:39.959Z,61.52
2023-09-11T18:46:07.252Z,61.38
2023-09-11T18:48:34.661Z,59.93
2023-09-11T18:51:02.050Z,59.94
2023-09-11T18:53:29.339Z,60.93
2023-09-11T18:55:56.599Z,59.83
2023-09-11T18:58:23.842Z,59.88
2023-09-11T19:00:51.205Z,60.34
2023-09-11T19:03:18.807Z,60.46
2023-09-11T19:05:46.368Z,60.22
2023-09-11T19:08:16.444Z,61.46
2023-09-11T19:10:43.988Z,61.18
2023-09-11T19:13:11.278Z,60.40
2023-09-11T19:15:38.625Z,59.92
2023-09-11T19:18:06.080Z,60.82
2023-09-11T19:20:33.811Z,61.96
2023-09-11T19:23:01.312Z,61.92
2023-09-11T19:25:28.759Z,62.46
2023-09-11T19:27:56.039Z,63.45
2023-09-11T19:30:24.910Z,64.21
2023-09-11T19:32:52.704Z,63.89
2023-09-11T19:35:20.104Z,65.42
2023-09-11T19:37:47.487Z,64.63
2023-09-11T19:40:16.817Z,65.12
2023-09-11T19:42:44.110Z,64.86
2023-09-11T19:45:11.534Z,64.34
2023-09-11T19:47:39.266Z,64.96
2023-09-11T19:50:06.912Z,65.94
2023-09-11T19:52:34.257Z,65.92
2023-09-11T19:55:01.635Z,66.41
2023-09-11T19:57:34.387Z,65.69
2023-09-11T20:00:01.828Z,65.68
2023-09-11T20:02:30.335Z,66.57
2023-09-11T20:04:58.302Z,67.17
2023-09-11T20:07:28.441Z,66.73
2023-09-11T20:09:57.079Z,66.36
2023-09-11T20:12:28.494Z,66.56
2023-09-11T20:14:55.995Z,67.37
2023-09-11T20:17:23.262Z,67.73
2023-09-11T20:19:50.669Z,67.56
2023-09-11T20:22:19.248Z,67.61
2023-09-11T20:24:46.661Z,67.23
2023-09-11T20:27:14.180Z,67.47
2023-09-11T20:29:41.441Z,68.11
2023-09-11T20:32:08.707Z,67.62
2023-09-11T20:34:36.107Z,68.56
2023-09-11T20:37:03.494Z,68.26
2023-09-11T20:39:31.202Z,67.14
2023-09-11T20:41:58.562Z,67.68
2023-09-11T20:44:26.113Z,68.10
2023-09-11T20:46:53.386Z,67.56
2023-09-11T20:49:21.383Z,68.23
2023-09-11T20:51:48.817Z,68.33
2023-09-11T20:54:16.567Z,68.26
2023-09-11T20:56:44.141Z,67.74
2023-09-11T20:59:11.541Z,67.40
2023-09-11T21:01:39.027Z,65.86
2023-09-11T21:04:10.894Z,66.74
2023-09-11T21:06:38.500Z,67.21
2023-09-11T21:09:05.938Z,67.23
2023-09-11T21:11:34.426Z,65.92
2023-09-11T21:14:01.935Z,66.32
2023-09-11T21:16:31.407Z,67.53
2023-09-11T21:18:58.793Z,68.14
2023-09-11T21:21:26.240Z,67.73
2023-09-11T21:23:53.690Z,67.64
2023-09-11T21:26:21.015Z,68.09
2023-09-11T21:28:48.410Z,69.09
2023-09-11T21:31:15.642Z,68.53
2023-09-11T21:33:44.988Z,68.31
2023-09-11T21:36:12.472Z,68.09
2023-09-11T21:38:39.879Z,68.36
2023-09-11T21:41:07.498Z,68.78
2023-09-11T21:43:35.199Z,68.90
2023-09-11T21:46:02.832Z,69.00
2023-09-11T21:48:30.209Z,68.80
2023-09-11T21:50:58.199Z,68.76
2023-09-11T21:53:27.113Z,68.77
2023-09-11T21:55:54.981Z,68.45
2023-09-11T21:58:25.043Z,68.02
2023-09-11T22:00:55.058Z,68.18
2023-09-11T22:03:22.476Z,69.50
2023-09-11T22:05:50.080Z,69.48
2023-09-11T22:08:18.917Z,69.90
2023-09-11T22:10:46.259Z,70.02
2023-09-11T22:13:13.611Z,69.89
2023-09-11T22:15:41.288Z,70.14
2023-09-11T22:18:08.873Z,69.26
2023-09-11T22:20:36.477Z,69.50
2023-09-11T22:23:04.100Z,69.51
2023-09-11T22:25:31.650Z,69.75
2023-09-11T22:27:59.768Z,69.52
2023-09-11T22:30:28.010Z,69.51
2023-09-11T22:32:58.179Z,69.47
2023-09-11T22:35:28.906Z,69.50
2023-09-11T22:37:58.323Z,69.46
2023-09-11T22:40:25.584Z,68.64
2023-09-11T22:42:53.197Z,68.14
2023-09-11T22:45:20.537Z,67.88
2023-09-11T22:47:49.846Z,68.01
2023-09-11T22:50:18.140Z,67.85
2023-09-11T22:52:45.479Z,67.43
2023-09-11T22:55:12.760Z,67.14
2023-09-11T22:57:40.233Z,67.11
2023-09-11T23:00:07.957Z,67.10
2023-09-11T23:02:35.317Z,67.24
2023-09-11T23:05:02.844Z,67.34
2023-09-11T23:07:30.418Z,67.30
2023-09-11T23:09:57.845Z,67.11
2023-09-11T23:12:25.164Z,66.94
2023-09-11T23:14:52.589Z,67.18
2023-09-11T23:17:19.846Z,67.07
2023-09-11T23:19:47.214Z,67.17
2023-09-11T23:22:14.501Z,66.66
2023-09-11T23:24:41.794Z,66.16
2023-09-11T23:27:09.254Z,65.89
2023-09-11T23:29:36.528Z,65.16
2023-09-11T23:32:04.021Z,64.65
2023-09-11T23:34:32.852Z,64.26
2023-09-11T23:37:00.176Z,64.96
2023-09-11T23:39:27.453Z,65.34
2023-09-11T23:41:54.791Z,65.95
2023-09-11T23:44:22.355Z,65.87
2023-09-11T23:46:51.288Z,66.75
2023-09-11T23:49:19.573Z,66.64
2023-09-11T23:51:47.604Z,66.25
2023-09-11T23:54:15.274Z,66.16
2023-09-11T23:56:43.773Z,66.37
2023-09-11T23:59:13.000Z,66.42
